CheckWX is a tool to help pilots better visualize weather data.  It is not intended as a substitute for an official pre-flight weather briefing.

11:00:34 UTC

KLDJ METAR
Linden Airport
Linden, New Jersey, USA
Current

1 hour ago

KLDJ 060955Z AUTO 00000KT 10SM SCT027 OVC050 11/08 A3001 RMK AO2 T01060081
Observed
Apr-6 @ 09:55 UTC
Visibility
Flight Rules
VFR
Cloud Levels
  • Scattered at 2,700' AGL
  • Overcast at 5,000' AGL
Temperature
11°C / 52°F
Dewpoint
C / 46°F
Humidity
82%
Altimeter
30.01" Hg
Pressure
1016.22 hPa
Previous

1 hour ago

KLDJ 060935Z AUTO 00000KT 10SM BKN050 OVC090 11/09 A3000 RMK AO2 T01060085
Observed
Apr-6 @ 09:35 UTC
Visibility
Flight Rules
VFR
Cloud Levels
  • Broken at 5,000' AGL
  • Overcast at 9,000' AGL
Temperature
11°C / 52°F
Dewpoint
C / 46°F
Humidity
82%
Altimeter
30" Hg
Pressure
1015.92 hPa
Previous

2 hours ago

KLDJ 060915Z AUTO 00000KT 10SM BKN050 OVC080 11/09 A3000 RMK AO2 T01100086
Observed
Apr-6 @ 09:15 UTC
Visibility
Flight Rules
VFR
Cloud Levels
  • Broken at 5,000' AGL
  • Overcast at 8,000' AGL
Temperature
11°C / 52°F
Dewpoint
C / 48°F
Humidity
88%
Altimeter
30" Hg
Pressure
1015.92 hPa